createdAt,value
2018-04-25T00:00:32.607Z,95.46
2018-04-25T00:01:29.061Z,94.41
2018-04-25T00:02:29.056Z,94.17
2018-04-25T00:03:28.814Z,93.4
2018-04-25T00:04:29.052Z,93.79
2018-04-25T00:05:28.803Z,92.93
2018-04-25T00:06:28.801Z,92.64
2018-04-25T00:07:28.799Z,92.25
2018-04-25T00:08:29.046Z,91.93
2018-04-25T00:09:29.051Z,92.11
2018-04-25T00:10:29.051Z,92.4
2018-04-25T00:11:28.795Z,92.4
2018-04-25T00:12:28.798Z,92.4
2018-04-25T00:13:29.050Z,93.07
2018-04-25T00:14:29.049Z,92.79
2018-04-25T00:15:28.794Z,93.65
2018-04-25T00:16:29.039Z,93.93
2018-04-25T00:17:29.033Z,94.55
2018-04-25T00:18:29.034Z,94.84
2018-04-25T00:19:29.024Z,94.74
2018-04-25T00:20:28.779Z,95.32
2018-04-25T00:21:29.035Z,95.03
2018-04-25T00:22:29.033Z,95.98
2018-04-25T00:23:29.034Z,96.37
2018-04-25T00:24:29.120Z,96.84
2018-04-25T00:25:29.033Z,97.03
2018-04-25T00:26:29.025Z,96.94
2018-04-25T00:27:29.017Z,97.71
2018-04-25T00:28:29.016Z,98.18
2018-04-25T00:29:29.017Z,98.94
2018-04-25T00:30:29.016Z,98.66
2018-04-25T00:31:29.015Z,99.14
2018-04-25T00:32:29.011Z,99.33
2018-04-25T00:33:29.089Z,99.14
2018-04-25T00:34:29.013Z,99.8
2018-04-25T00:35:29.009Z,99.33
2018-04-25T00:36:29.007Z,98.57
2018-04-25T00:37:29.002Z,98.28
2018-04-25T00:38:29.002Z,98.75
2018-04-25T00:39:29.004Z,98.57
2018-04-25T00:40:29.005Z,98.75
2018-04-25T00:41:28.999Z,98.47
2018-04-25T00:42:28.994Z,98.94
2018-04-25T00:43:29.007Z,98.47
2018-04-25T00:44:29.199Z,98.57
2018-04-25T00:45:29.004Z,98.66
2018-04-25T00:46:29.005Z,99.28
2018-04-25T00:47:28.738Z,99.08
2018-04-25T00:48:28.987Z,99.85
2018-04-25T00:49:28.982Z,99.33
2018-04-25T00:50:28.733Z,99.52
2018-04-25T00:51:28.978Z,99.28
2018-04-25T00:52:28.979Z,99.76
2018-04-25T00:53:28.979Z,99.76
2018-04-25T00:54:28.976Z,99.57
2018-04-25T00:55:28.728Z,99.37
2018-04-25T00:56:28.720Z,99.85
2018-04-25T00:57:28.721Z,99.37
2018-04-25T00:58:28.967Z,99.47
2018-04-25T00:59:28.970Z,99.28
2018-04-25T01:00:28.969Z,98.9
2018-04-25T01:01:30.263Z,98.18
2018-04-25T01:02:28.961Z,97.32
2018-04-25T01:03:28.959Z,95.41
2018-04-25T01:04:28.955Z,95.51
2018-04-25T01:05:28.955Z,93.6
2018-04-25T01:06:28.955Z,92.83
2018-04-25T01:07:28.701Z,93.41
2018-04-25T01:08:28.953Z,91.78
2018-04-25T01:09:28.950Z,91.21
2018-04-25T01:10:28.952Z,89.53
2018-04-25T01:11:28.694Z,88.87
2018-04-25T01:12:28.694Z,88.68
2018-04-25T01:13:28.940Z,87.72
2018-04-25T01:14:28.941Z,86.76
2018-04-25T01:15:28.951Z,86.67
2018-04-25T01:16:28.935Z,87
2018-04-25T01:17:28.939Z,87
2018-04-25T01:18:28.940Z,86.33
2018-04-25T01:19:28.930Z,85.57
2018-04-25T01:20:28.680Z,84.7
2018-04-25T01:21:28.937Z,84.52
2018-04-25T01:22:28.932Z,84.32
2018-04-25T01:23:28.932Z,83.56
2018-04-25T01:24:28.671Z,84.13
2018-04-25T01:25:28.921Z,84.42
2018-04-25T01:26:28.672Z,84.7
2018-04-25T01:27:28.665Z,83.75
2018-04-25T01:28:28.914Z,83.22
2018-04-25T01:29:28.664Z,83.31
2018-04-25T01:30:28.662Z,82.35
2018-04-25T01:31:29.412Z,82.45
2018-04-25T01:32:28.908Z,82.07
2018-04-25T01:33:28.658Z,82.17
2018-04-25T01:34:28.913Z,81.3
2018-04-25T01:35:28.914Z,81.68
2018-04-25T01:36:28.657Z,81.49
2018-04-25T01:37:28.913Z,80.35
2018-04-25T01:38:28.915Z,80.35
2018-04-25T01:39:28.648Z,79.96
2018-04-25T01:40:28.902Z,80.44
2018-04-25T01:41:28.896Z,80.06
2018-04-25T01:42:28.899Z,80.73
2018-04-25T01:43:28.896Z,80.82
2018-04-25T01:44:28.651Z,81.97
2018-04-25T01:45:28.660Z,83.22
2018-04-25T01:46:28.891Z,83.69
2018-04-25T01:47:28.895Z,84.89
2018-04-25T01:48:28.886Z,85.38
2018-04-25T01:49:28.894Z,86.04
2018-04-25T01:50:28.634Z,86.14
2018-04-25T01:51:28.888Z,87
2018-04-25T01:52:28.632Z,87.53
2018-04-25T01:53:28.628Z,88.2
2018-04-25T01:54:28.878Z,87.82
2018-04-25T01:55:28.626Z,88.01
2018-04-25T01:56:28.873Z,88.1
2018-04-25T01:57:28.875Z,88.58
2018-04-25T01:58:28.876Z,88.58
2018-04-25T01:59:28.872Z,89.34
2018-04-25T02:00:28.864Z,89.53
2018-04-25T02:01:28.863Z,90.01
2018-04-25T02:02:28.856Z,90.59
2018-04-25T02:03:28.859Z,90.2
2018-04-25T02:04:28.860Z,90.78
2018-04-25T02:05:28.604Z,90.97
2018-04-25T02:06:28.851Z,91.4
2018-04-25T02:07:28.851Z,91.83
2018-04-25T02:08:28.849Z,93.02
2018-04-25T02:09:28.873Z,92.93
2018-04-25T02:10:28.601Z,93.02
2018-04-25T02:11:28.848Z,92.93
2018-04-25T02:12:28.844Z,93.6
2018-04-25T02:13:28.876Z,93.12
2018-04-25T02:14:28.847Z,93.6
2018-04-25T02:15:28.586Z,93.31
2018-04-25T02:16:28.829Z,93.31
2018-04-25T02:17:28.825Z,93.31
2018-04-25T02:18:28.571Z,93.79
2018-04-25T02:19:28.861Z,92.93
2018-04-25T02:20:28.815Z,92.74
2018-04-25T02:21:28.813Z,93.12
2018-04-25T02:22:28.813Z,92.45
2018-04-25T02:23:28.558Z,92.93
2018-04-25T02:24:28.814Z,93.12
2018-04-25T02:25:28.555Z,93.02
2018-04-25T02:26:28.813Z,93.02
2018-04-25T02:27:28.555Z,93.12
2018-04-25T02:28:28.812Z,93.5
2018-04-25T02:29:28.798Z,93.79
2018-04-25T02:30:28.814Z,93.98
2018-04-25T02:31:28.794Z,93.6
2018-04-25T02:32:28.784Z,94.07
2018-04-25T02:33:28.799Z,93.79
2018-04-25T02:34:28.779Z,94.65
2018-04-25T02:35:28.779Z,94.55
2018-04-25T02:36:28.531Z,93.98
2018-04-25T02:37:28.528Z,93.98
2018-04-25T02:38:28.779Z,94.65
2018-04-25T02:39:28.768Z,94.74
2018-04-25T02:40:28.767Z,94.27
2018-04-25T02:41:28.789Z,94.07
2018-04-25T02:42:28.763Z,93.12
2018-04-25T02:43:28.618Z,92.93
2018-04-25T02:44:28.766Z,93.12
2018-04-25T02:45:28.510Z,92.93
2018-04-25T02:46:28.762Z,94.65
2018-04-25T02:47:28.766Z,93.79
2018-04-25T02:48:28.509Z,93.98
2018-04-25T02:49:28.779Z,94.41
2018-04-25T02:50:28.796Z,94.22
2018-04-25T02:51:28.490Z,94.79
2018-04-25T02:52:28.739Z,95.27
2018-04-25T02:53:28.482Z,94.27
2018-04-25T02:54:28.728Z,94.46
2018-04-25T02:55:28.726Z,93.88
2018-04-25T02:56:28.727Z,93.88
2018-04-25T02:57:28.724Z,93.98
2018-04-25T02:58:28.468Z,94.6
2018-04-25T02:59:28.716Z,94.51
2018-04-25T03:00:28.714Z,95.08
2018-04-25T03:01:28.722Z,95.36
2018-04-25T03:02:31.411Z,95.08
2018-04-25T03:03:28.455Z,96.22
2018-04-25T03:04:28.704Z,95.08
2018-04-25T03:05:28.707Z,95.56
2018-04-25T03:06:28.465Z,95.08
2018-04-25T03:07:28.445Z,95.17
2018-04-25T03:08:28.691Z,95.17
2018-04-25T03:09:28.690Z,95.17
2018-04-25T03:10:28.692Z,94.7
2018-04-25T03:11:28.684Z,94.17
2018-04-25T03:12:28.681Z,93.55
2018-04-25T03:13:28.443Z,94.7
2018-04-25T03:14:28.430Z,94.51
2018-04-25T03:15:28.670Z,94.7
2018-04-25T03:16:28.675Z,93.79
2018-04-25T03:17:28.785Z,93.74
2018-04-25T03:18:28.663Z,94.79
2018-04-25T03:19:28.412Z,94.79
2018-04-25T03:20:28.659Z,95.36
2018-04-25T03:21:28.657Z,96.13
2018-04-25T03:22:29.466Z,95.46
2018-04-25T03:23:28.717Z,95.17
2018-04-25T03:24:28.720Z,94.89
2018-04-25T03:25:28.643Z,95.84
2018-04-25T03:26:28.640Z,95.27
2018-04-25T03:27:28.643Z,94.7
2018-04-25T03:28:28.637Z,95.46
2018-04-25T03:29:28.640Z,94.41
2018-04-25T03:37:55.304Z,94.51
2018-04-25T03:38:55.304Z,94.65
2018-04-25T03:39:55.547Z,93.79
2018-04-25T03:40:55.548Z,93.7
2018-04-25T03:41:55.296Z,93.6
2018-04-25T03:42:55.544Z,93.02
2018-04-25T03:43:55.290Z,93.12
2018-04-25T03:44:55.533Z,93.79
2018-04-25T03:45:55.533Z,93.02
2018-04-25T03:46:55.282Z,93.88
2018-04-25T03:47:55.531Z,94.07
2018-04-25T03:48:55.526Z,93.02
2018-04-25T03:49:55.525Z,93.6
2018-04-25T03:50:55.524Z,93.02
2018-04-25T03:51:55.525Z,92.26
2018-04-25T03:52:55.317Z,92.36
2018-04-25T03:53:55.520Z,92.93
2018-04-25T03:54:55.512Z,92.64
2018-04-25T03:55:55.508Z,92.36
2018-04-25T03:56:55.263Z,92.55
2018-04-25T03:57:55.512Z,92.36
2018-04-25T03:58:55.507Z,92.26
2018-04-25T03:59:55.500Z,92.64
2018-04-25T04:00:55.504Z,93.02
2018-04-25T04:01:55.497Z,92.36
2018-04-25T04:02:55.495Z,91.78
2018-04-25T04:03:55.491Z,92.45
2018-04-25T04:04:55.488Z,92.26
2018-04-25T04:05:55.489Z,92.36
2018-04-25T04:06:55.482Z,92.26
2018-04-25T04:07:57.532Z,91.88
2018-04-25T04:08:55.476Z,91.97
2018-04-25T04:09:55.226Z,91.78
2018-04-25T04:10:55.472Z,92.07
2018-04-25T04:11:55.469Z,92.07
2018-04-25T04:12:55.533Z,92.16
2018-04-25T04:13:55.477Z,91.78
2018-04-25T04:14:55.471Z,91.4
2018-04-25T04:15:55.211Z,91.59
2018-04-25T04:16:55.461Z,90.92
2018-04-25T04:17:55.466Z,90.16
2018-04-25T04:18:55.213Z,89.68
2018-04-25T04:19:55.215Z,89.3
2018-04-25T04:20:55.450Z,89.3
2018-04-25T04:21:55.448Z,88.48
2018-04-25T04:22:55.445Z,88.68
2018-04-25T04:23:55.446Z,89.34
2018-04-25T04:24:55.561Z,89.06
2018-04-25T04:25:55.442Z,88.77
2018-04-25T04:26:55.433Z,89.49
2018-04-25T04:27:55.436Z,89.2
2018-04-25T04:28:55.184Z,89.73
2018-04-25T04:29:55.431Z,88.01
2018-04-25T04:30:55.426Z,88.29
2018-04-25T04:31:55.424Z,89.34
2018-04-25T04:32:55.427Z,89.44
2018-04-25T04:33:55.421Z,88.29
2018-04-25T04:34:55.419Z,89.34
2018-04-25T04:35:55.414Z,88.39
2018-04-25T04:36:55.418Z,89.25
2018-04-25T04:37:55.412Z,89.87
2018-04-25T04:38:55.418Z,90.01
2018-04-25T04:39:55.410Z,89.97
2018-04-25T04:40:55.414Z,89.78
2018-04-25T04:41:55.408Z,89.87
2018-04-25T04:42:55.149Z,90.39
2018-04-25T04:43:55.419Z,90.2
2018-04-25T04:44:55.398Z,89.15
2018-04-25T04:45:55.399Z,88.29
2018-04-25T04:46:55.393Z,87.62
2018-04-25T04:47:55.391Z,87.72
2018-04-25T04:48:55.388Z,86.71
2018-04-25T04:49:55.388Z,85.85
2018-04-25T04:50:55.384Z,85.28
2018-04-25T04:51:55.382Z,85.57
2018-04-25T04:52:55.135Z,85.47
2018-04-25T04:53:55.432Z,85.57
2018-04-25T04:54:55.377Z,86.33
2018-04-25T04:55:55.379Z,85.75
2018-04-25T04:56:55.376Z,85.94
2018-04-25T04:57:55.378Z,84.8
2018-04-25T04:58:55.135Z,84.61
2018-04-25T04:59:55.384Z,84.08
2018-04-25T05:00:55.371Z,83.98
2018-04-25T05:01:55.378Z,83.31
2018-04-25T05:02:55.370Z,82.45
2018-04-25T05:03:55.381Z,81.88
2018-04-25T05:04:55.375Z,81.73
2018-04-25T05:05:55.378Z,80.48
2018-04-25T05:06:55.390Z,80.29
2018-04-25T05:07:55.372Z,79.85
2018-04-25T05:08:56.618Z,79.37
2018-04-25T05:09:55.376Z,78.51
2018-04-25T05:10:55.373Z,77.65
2018-04-25T05:11:55.118Z,78.61
2018-04-25T05:12:55.367Z,77.31
2018-04-25T05:13:55.376Z,77.02
2018-04-25T05:14:55.377Z,76.15
2018-04-25T05:15:55.424Z,74.85
2018-04-25T05:16:55.123Z,74.08
2018-04-25T05:17:55.376Z,73.32
2018-04-25T05:18:55.378Z,72.84
2018-04-25T05:19:55.380Z,72.68
2018-04-25T05:20:55.147Z,72.39
2018-04-25T05:21:55.138Z,72.11
2018-04-25T05:22:55.385Z,72.59
2018-04-25T05:23:55.430Z,73.13
2018-04-25T05:24:55.385Z,72.94
2018-04-25T05:25:55.383Z,73.51
2018-04-25T05:26:55.387Z,73.51
2018-04-25T05:27:55.385Z,74.08
2018-04-25T05:28:55.388Z,74.37
2018-04-25T05:29:55.390Z,74.76
2018-04-25T05:30:55.395Z,75.39
2018-04-25T05:31:55.230Z,76.25
2018-04-25T05:32:55.390Z,77.08
2018-04-25T05:33:55.147Z,77.84
2018-04-25T05:34:55.403Z,77.94
2018-04-25T05:35:55.398Z,77.65
2018-04-25T05:36:55.147Z,77.65
2018-04-25T05:37:55.407Z,77.84
2018-04-25T05:38:55.416Z,77.65
2018-04-25T05:39:55.397Z,77.84
2018-04-25T05:40:55.398Z,77.84
2018-04-25T05:41:55.150Z,78.03
2018-04-25T05:42:55.399Z,77.11
2018-04-25T05:43:55.399Z,76.92
2018-04-25T05:44:55.403Z,76.92
2018-04-25T05:45:55.575Z,77.11
2018-04-25T05:46:55.404Z,77.31
2018-04-25T05:47:55.404Z,77.02
2018-04-25T05:48:55.419Z,78.17
2018-04-25T05:49:55.156Z,78.03
2018-04-25T05:50:55.405Z,78.51
2018-04-25T05:51:55.570Z,78.61
2018-04-25T05:52:55.157Z,78.7
2018-04-25T05:53:55.417Z,77.59
2018-04-25T05:54:55.464Z,75.81
2018-04-25T05:55:55.408Z,73.41
2018-04-25T05:56:55.445Z,71.63
2018-04-25T05:57:55.235Z,70.42
2018-04-25T05:58:55.408Z,68.63
2018-04-25T05:59:55.164Z,67.67
2018-04-25T06:00:55.163Z,66.55
2018-04-25T06:01:55.417Z,65.14
2018-04-25T06:02:55.426Z,63.73
2018-04-25T06:03:55.424Z,63.45
2018-04-25T06:04:55.420Z,62.32
2018-04-25T06:05:55.175Z,61.16
2018-04-25T06:06:55.423Z,61.65
2018-04-25T06:07:55.430Z,62.61
2018-04-25T06:08:55.437Z,63.15
2018-04-25T06:09:57.890Z,63.92
2018-04-25T06:10:55.438Z,63.73
2018-04-25T06:11:55.440Z,64.12
2018-04-25T06:12:55.442Z,64.76
2018-04-25T06:22:48.108Z,55.82
2018-04-25T06:23:48.106Z,54.66
2018-04-25T06:24:48.358Z,53.92
2018-04-25T06:25:48.411Z,53.37
2018-04-25T06:26:48.378Z,52.69
2018-04-25T06:27:48.422Z,52.31
2018-04-25T06:28:48.132Z,51.85
2018-04-25T06:29:48.375Z,50.98
2018-04-25T06:30:48.127Z,50.91
2018-04-25T06:31:48.136Z,50.43
2018-04-25T06:32:48.393Z,49.75
2018-04-25T06:33:48.394Z,49
2018-04-25T06:34:48.398Z,48.32
2018-04-25T06:35:48.150Z,48.03
2018-04-25T06:36:48.157Z,48.13
2018-04-25T06:37:48.417Z,47.48
2018-04-25T06:38:48.420Z,47.67
2018-04-25T06:39:48.428Z,47.21
2018-04-25T06:40:48.432Z,46.63
2018-04-25T06:41:48.437Z,47.19
2018-04-25T06:42:49.793Z,47.28
2018-04-25T06:43:48.444Z,46.8
2018-04-25T06:44:48.571Z,47.19
2018-04-25T06:45:48.207Z,47.21
2018-04-25T06:46:48.473Z,45.76
2018-04-25T06:47:48.488Z,45.1
2018-04-25T06:48:48.237Z,44.35
2018-04-25T06:49:48.484Z,43.96
2018-04-25T06:50:48.596Z,43.38
2018-04-25T06:51:48.244Z,43.7
2018-04-25T06:52:48.500Z,43.79
2018-04-25T06:53:48.258Z,43.77
2018-04-25T06:54:48.516Z,44.74
2018-04-25T06:55:48.539Z,44.64
2018-04-25T06:56:48.610Z,44.81
2018-04-25T06:57:48.588Z,43.68
2018-04-25T06:58:48.541Z,43.48
2018-04-25T06:59:48.547Z,42.82
2018-04-25T07:00:48.558Z,43.21
2018-04-25T07:01:48.567Z,42.44
2018-04-25T07:02:48.600Z,42.14
2018-04-25T07:03:48.574Z,42.34
2018-04-25T07:04:48.581Z,42.34
2018-04-25T07:05:48.339Z,42.24
2018-04-25T07:06:48.592Z,42.72
2018-04-25T07:07:48.619Z,42.44
2018-04-25T07:08:48.610Z,41.68
2018-04-25T07:09:48.616Z,41.02
2018-04-25T07:10:48.616Z,40.83
2018-04-25T07:11:48.624Z,39.88
2018-04-25T07:12:54.141Z,39.88
2018-04-25T07:13:48.640Z,40.17
2018-04-25T07:14:48.643Z,39.98
2018-04-25T07:15:48.657Z,39.59
2018-04-25T07:16:48.654Z,39.22
2018-04-25T07:17:48.671Z,38.07
2018-04-25T07:18:48.672Z,38.75
2018-04-25T07:19:48.676Z,38.85
2018-04-25T07:20:48.442Z,39.43
2018-04-25T07:21:48.695Z,38.57
2018-04-25T07:22:48.696Z,38.57
2018-04-25T07:23:48.818Z,38.57
2018-04-25T07:24:48.712Z,37.32
2018-04-25T07:25:48.731Z,36.75
2018-04-25T07:26:48.480Z,37.04
2018-04-25T07:27:48.742Z,37.62
2018-04-25T07:28:48.742Z,37.62
2018-04-25T07:29:48.509Z,37.32
2018-04-25T07:30:48.760Z,38.39
2018-04-25T07:31:48.762Z,40
2018-04-25T07:32:48.791Z,40.17
2018-04-25T07:33:48.532Z,41.22
2018-04-25T07:34:48.791Z,42.55
2018-04-25T07:35:48.550Z,42.34
2018-04-25T07:36:48.799Z,43.21
2018-04-25T07:37:48.812Z,43.89
2018-04-25T07:38:48.813Z,43.68
2018-04-25T07:39:48.822Z,43.77
2018-04-25T07:40:48.839Z,43.96
2018-04-25T07:41:48.951Z,43.77
2018-04-25T07:42:48.596Z,41.47
2018-04-25T07:43:48.844Z,40.83
2018-04-25T07:44:48.855Z,40.64
2018-04-25T07:45:48.626Z,38.91
2018-04-25T07:46:48.692Z,39.49
2018-04-25T07:47:48.950Z,39.7
2018-04-25T07:48:48.886Z,39.32
2018-04-25T07:49:48.642Z,39.03
2018-04-25T07:50:48.892Z,38.95
2018-04-25T07:51:48.648Z,38.85
2018-04-25T07:52:48.906Z,38.56
2018-04-25T07:53:48.922Z,37.41
2018-04-25T07:54:48.676Z,37.43
2018-04-25T07:55:48.929Z,37.43
2018-04-25T07:56:48.947Z,36.75
2018-04-25T07:57:48.859Z,35.6
2018-04-25T07:58:49.008Z,35.52
2018-04-25T07:59:48.959Z,34.74
2018-04-25T08:00:48.713Z,34.66
2018-04-25T08:01:48.719Z,34.48
2018-04-25T08:02:48.732Z,34.88
2018-04-25T08:03:48.779Z,34.58
2018-04-25T08:04:49.015Z,33.53
2018-04-25T08:05:48.758Z,32.67
2018-04-25T08:06:49.012Z,33.34
2018-04-25T08:07:49.021Z,32.76
2018-04-25T08:08:49.026Z,32.86
2018-04-25T08:09:49.034Z,33.15
2018-04-25T08:10:49.048Z,32.28
2018-04-25T08:11:49.084Z,32.76
2018-04-25T08:12:49.077Z,32.67
2018-04-25T08:13:49.622Z,32.39
2018-04-25T08:14:49.086Z,33.34
2018-04-25T08:15:48.835Z,33.43
2018-04-25T08:16:49.103Z,33.72
2018-04-25T08:17:49.167Z,34.78
2018-04-25T08:18:49.122Z,33.8
2018-04-25T08:19:49.111Z,34
2018-04-25T08:20:49.188Z,34.29
2018-04-25T08:21:49.132Z,34.76
2018-04-25T08:22:48.894Z,35.71
2018-04-25T08:23:48.945Z,35.33
2018-04-25T08:24:49.190Z,35.8
2018-04-25T08:25:49.209Z,36.57
2018-04-25T08:26:49.179Z,36.26
2018-04-25T08:27:49.194Z,35.88
2018-04-25T08:28:48.986Z,35.49
2018-04-25T08:29:49.201Z,35.58
2018-04-25T08:30:49.233Z,35.58
2018-04-25T08:31:48.967Z,35.78
2018-04-25T08:32:49.236Z,35.58
2018-04-25T08:33:49.239Z,35.68
2018-04-25T08:34:49.238Z,36.07
2018-04-25T08:35:49.243Z,36.16
2018-04-25T08:36:49.251Z,35.88
2018-04-25T08:37:49.268Z,36.73
2018-04-25T08:38:49.267Z,38.27
2018-04-25T08:39:49.047Z,39.01
2018-04-25T08:40:49.298Z,39.18
2018-04-25T08:41:49.042Z,40.34
2018-04-25T08:42:49.304Z,40.42
2018-04-25T08:43:49.763Z,41.1
2018-04-25T08:44:49.558Z,41.47
2018-04-25T08:45:49.313Z,41.86
2018-04-25T08:46:49.329Z,41.74
2018-04-25T08:47:49.333Z,42.41
2018-04-25T08:48:49.344Z,42.3
2018-04-25T08:49:49.348Z,42.49
2018-04-25T08:50:49.361Z,42.76
2018-04-25T08:51:49.356Z,42.96
2018-04-25T08:52:49.430Z,43.73
2018-04-25T08:53:49.367Z,43.99
2018-04-25T08:54:49.374Z,44.48
2018-04-25T08:55:49.380Z,43.99
2018-04-25T08:56:49.387Z,43.78
2018-04-25T08:57:49.394Z,43.99
2018-04-25T08:58:49.704Z,43.88
2018-04-25T08:59:49.409Z,43.71
2018-04-25T09:00:49.160Z,43.61
2018-04-25T09:01:49.422Z,44.07
2018-04-25T09:02:49.433Z,44.46
2018-04-25T09:03:49.436Z,44.75
2018-04-25T09:04:49.433Z,44.84
2018-04-25T09:05:49.555Z,44.75
2018-04-25T09:06:49.439Z,45.52
2018-04-25T09:07:49.445Z,44.56
2018-04-25T09:08:49.452Z,44.75
2018-04-25T09:09:49.456Z,45.23
2018-04-25T09:10:49.467Z,44.87
2018-04-25T09:11:49.468Z,44.57
2018-04-25T09:12:49.474Z,44.96
2018-04-25T09:13:50.578Z,44.87
2018-04-25T09:14:49.486Z,44.67
2018-04-25T09:15:49.491Z,45.45
2018-04-25T09:16:49.496Z,45.35
2018-04-25T09:17:49.260Z,44.48
2018-04-25T09:18:49.500Z,43.71
2018-04-25T09:19:49.507Z,44.19
2018-04-25T09:20:49.279Z,43.61
2018-04-25T09:21:49.515Z,43.03
2018-04-25T09:22:49.524Z,43.13
2018-04-25T09:23:49.534Z,42.91
2018-04-25T09:24:49.537Z,43.4
2018-04-25T09:25:49.540Z,43.68
2018-04-25T09:26:49.546Z,43.1
2018-04-25T09:27:49.300Z,42.82
2018-04-25T09:28:49.597Z,43.1
2018-04-25T09:29:49.637Z,43.1
2018-04-25T09:30:49.316Z,43.68
2018-04-25T09:31:49.567Z,42.72
2018-04-25T09:32:49.567Z,42.14
2018-04-25T09:33:49.571Z,41.66
2018-04-25T09:34:49.577Z,41.36
2018-04-25T09:35:49.585Z,41.63
2018-04-25T09:36:49.601Z,42.5
2018-04-25T09:37:49.592Z,41.83
2018-04-25T09:38:49.592Z,42.68
2018-04-25T09:39:49.599Z,42.48
2018-04-25T09:40:49.609Z,42.29
2018-04-25T09:41:49.613Z,41.81
2018-04-25T09:42:49.617Z,41.71
2018-04-25T09:43:49.678Z,41.63
2018-04-25T09:44:49.619Z,41.25
2018-04-25T09:45:49.718Z,41.15
2018-04-25T09:46:49.637Z,41.08
2018-04-25T09:47:49.635Z,40.01
2018-04-25T09:48:49.649Z,39.41
2018-04-25T09:49:49.650Z,37.98
2018-04-25T09:50:49.401Z,38.46
2018-04-25T09:51:49.766Z,37.71
2018-04-25T09:52:49.667Z,37.52
2018-04-25T09:53:49.670Z,36.86
2018-04-25T09:54:49.674Z,36.78
2018-04-25T09:55:49.682Z,36.4
2018-04-25T09:56:49.427Z,37.36
2018-04-25T09:57:49.874Z,37.26
2018-04-25T09:58:49.446Z,37.07
2018-04-25T09:59:49.716Z,36.58
2018-04-25T10:00:49.701Z,36.3
2018-04-25T10:01:49.713Z,35.91
2018-04-25T10:02:49.704Z,36.1
2018-04-25T10:03:49.715Z,37.34
2018-04-25T10:04:49.725Z,37.15
2018-04-25T10:05:49.716Z,37.54
2018-04-25T10:06:49.474Z,36.66
2018-04-25T10:07:49.492Z,36.47
2018-04-25T10:08:49.741Z,36.96
2018-04-25T10:09:49.760Z,37.24
2018-04-25T10:10:49.631Z,37.44
2018-04-25T10:11:49.759Z,37.13
2018-04-25T10:12:49.500Z,37.23
2018-04-25T10:13:49.524Z,37.23
2018-04-25T10:14:49.778Z,38.08
2018-04-25T10:15:49.780Z,38.56
2018-04-25T10:16:49.786Z,38.64
2018-04-25T10:17:49.792Z,38.35
2018-04-25T10:18:49.785Z,38.06
2018-04-25T10:19:49.805Z,38.45
2018-04-25T10:20:49.819Z,38.45
2018-04-25T10:21:49.824Z,38.93
2018-04-25T10:52:42.605Z,32.23
2018-04-25T10:53:38.852Z,32.06
2018-04-25T10:54:38.849Z,32.15
2018-04-25T10:55:38.852Z,32.15
2018-04-25T10:56:39.111Z,33.01
2018-04-25T10:57:39.110Z,33.1
2018-04-25T10:58:38.860Z,33.29
2018-04-25T10:59:38.863Z,33.69
2018-04-25T11:00:38.864Z,34.17
2018-04-25T11:01:39.123Z,34.75
2018-04-25T11:02:39.121Z,34.34
2018-04-25T11:03:39.126Z,34.44
2018-04-25T11:04:38.904Z,34.36
2018-04-25T11:05:39.138Z,33.18
2018-04-25T11:06:39.140Z,34.33
2018-04-25T11:07:38.894Z,34.62
2018-04-25T11:08:38.896Z,34.6
2018-04-25T11:09:39.158Z,34.89
2018-04-25T11:10:39.166Z,34.5
2018-04-25T11:11:38.911Z,35.37
2018-04-25T11:12:39.164Z,35.76
2018-04-25T11:13:38.915Z,35.95
2018-04-25T11:14:39.175Z,35.84
2018-04-25T11:15:39.005Z,35.84
2018-04-25T11:16:38.933Z,36.32
2018-04-25T11:17:39.186Z,37.19
2018-04-25T11:18:38.936Z,38.06
2018-04-25T11:19:38.943Z,38.45
2018-04-25T11:20:39.193Z,40.09
2018-04-25T11:21:39.196Z,41.15
2018-04-25T11:22:39.210Z,41.83
2018-04-25T11:23:38.966Z,41.94
2018-04-25T11:24:39.216Z,42.14
2018-04-25T11:25:39.216Z,42.14
2018-04-25T11:26:39.015Z,42.62
2018-04-25T11:27:38.973Z,43.18
2018-04-25T11:28:38.975Z,43.28
2018-04-25T11:29:39.234Z,42.41
2018-04-25T11:30:39.237Z,42.21
2018-04-25T11:31:39.246Z,42.89
2018-04-25T11:32:39.247Z,43.18
2018-04-25T11:33:39.000Z,43.66
2018-04-25T11:34:39.003Z,43.85
2018-04-25T11:35:39.258Z,44.34
2018-04-25T11:36:39.269Z,44.24
2018-04-25T11:37:39.266Z,44.82
2018-04-25T11:38:39.268Z,44.63
2018-04-25T11:39:39.275Z,44.8
2018-04-25T11:40:39.354Z,44.8
2018-04-25T11:41:39.287Z,44.24
2018-04-25T11:42:39.287Z,44.34
2018-04-25T11:43:39.299Z,44.63
2018-04-25T11:44:39.296Z,43.85
2018-04-25T11:45:39.300Z,44.73
2018-04-25T11:46:39.302Z,44.63
2018-04-25T11:47:39.314Z,44.82
2018-04-25T11:48:39.310Z,44.63
2018-04-25T11:49:39.067Z,44.53
2018-04-25T11:50:39.329Z,44.56
2018-04-25T11:51:39.331Z,43.78
2018-04-25T11:52:39.083Z,43.78
2018-04-25T11:53:39.332Z,43.98
2018-04-25T11:54:39.087Z,44.15
2018-04-25T11:55:39.345Z,44.53
2018-04-25T11:56:39.348Z,44.82
2018-04-25T11:57:39.350Z,44.82
2018-04-25T11:58:39.355Z,44.8
2018-04-25T11:59:39.184Z,44.7
2018-04-25T12:00:39.393Z,45
2018-04-25T12:01:39.368Z,44.92
2018-04-25T12:02:39.375Z,44.92
2018-04-25T12:03:39.130Z,44.63
2018-04-25T12:04:39.382Z,44.92
2018-04-25T12:05:39.381Z,44.8
2018-04-25T12:06:39.397Z,44.8
2018-04-25T12:07:39.401Z,43.95
2018-04-25T12:08:39.399Z,43.76
2018-04-25T12:09:39.401Z,43.95
2018-04-25T12:10:39.157Z,43.08
2018-04-25T12:11:39.416Z,42.5
2018-04-25T12:12:39.424Z,42.6
2018-04-25T12:13:39.419Z,42.39
2018-04-25T12:14:39.422Z,42.29
2018-04-25T12:15:39.178Z,42.68
2018-04-25T12:16:39.434Z,42.58
2018-04-25T12:17:39.193Z,41.71
2018-04-25T12:18:39.300Z,42.19
2018-04-25T12:19:39.537Z,42.97
2018-04-25T12:20:39.198Z,44.03
2018-04-25T12:21:39.453Z,43.84
2018-04-25T12:22:39.455Z,44.7
2018-04-25T12:23:41.310Z,44.9
2018-04-25T12:24:39.471Z,45.26
2018-04-25T12:25:39.225Z,45.17
2018-04-25T12:26:39.484Z,45.17
2018-04-25T12:27:39.478Z,45.65
2018-04-25T12:28:40.281Z,45.65
2018-04-25T12:29:39.568Z,45.75
2018-04-25T12:30:39.488Z,45.45
2018-04-25T12:31:39.490Z,45.26
2018-04-25T12:32:39.496Z,46.13
2018-04-25T12:33:39.246Z,46.23
2018-04-25T12:34:39.503Z,46.13
2018-04-25T12:35:39.505Z,46.13
2018-04-25T12:36:39.509Z,46.13
2018-04-25T12:37:39.515Z,45.17
2018-04-25T12:38:39.515Z,44.59
2018-04-25T12:39:39.269Z,44.87
2018-04-25T12:40:39.521Z,44.97
2018-04-25T12:41:39.289Z,44.97
2018-04-25T12:42:39.367Z,45.26
2018-04-25T12:43:39.547Z,44.03
2018-04-25T12:44:39.288Z,43.64
2018-04-25T12:45:39.546Z,42.87
2018-04-25T12:46:39.546Z,43.06
2018-04-25T12:47:39.557Z,43.06
2018-04-25T12:48:39.308Z,43.16
2018-04-25T12:49:39.556Z,42.99
2018-04-25T12:50:39.557Z,43.37
2018-04-25T12:51:39.565Z,42.41
2018-04-25T12:52:39.570Z,42.21
2018-04-25T12:53:39.637Z,42.6
2018-04-25T12:54:39.589Z,42.5
2018-04-25T12:55:39.624Z,42.6
2018-04-25T12:56:39.583Z,42.31
2018-04-25T12:57:39.591Z,41.73
2018-04-25T12:58:39.599Z,41.63
2018-04-25T12:59:39.594Z,41.35
2018-04-25T13:00:39.608Z,41.35
2018-04-25T13:01:39.444Z,41.05
2018-04-25T13:02:39.615Z,41.73
2018-04-25T13:03:39.613Z,41.73
2018-04-25T13:04:39.619Z,41.54
2018-04-25T13:05:39.619Z,41.73
2018-04-25T13:06:39.623Z,41.61
2018-04-25T13:07:39.628Z,41.61
2018-04-25T13:08:39.628Z,41.42
2018-04-25T13:09:39.641Z,42.39
2018-04-25T13:10:39.638Z,42.39
2018-04-25T13:11:39.643Z,43.06
2018-04-25T13:12:39.397Z,42.77
2018-04-25T13:13:39.649Z,43.04
2018-04-25T13:14:39.652Z,42.19
2018-04-25T13:15:39.668Z,42.08
2018-04-25T13:16:39.670Z,41.91
2018-04-25T13:17:39.674Z,41.71
2018-04-25T13:18:39.435Z,42.29
2018-04-25T13:19:39.686Z,42.58
2018-04-25T13:20:39.684Z,42.58
2018-04-25T13:21:39.679Z,42.29
2018-04-25T13:22:39.686Z,42.48
2018-04-25T13:23:39.686Z,43.45
2018-04-25T13:24:39.692Z,44.9
2018-04-25T13:25:39.446Z,45.28
2018-04-25T13:26:39.707Z,44.68
2018-04-25T13:27:39.460Z,44.68
2018-04-25T13:28:39.458Z,44.97
2018-04-25T13:29:39.713Z,45.17
2018-04-25T13:30:39.716Z,45.94
2018-04-25T13:31:39.717Z,45.94
2018-04-25T13:32:39.728Z,46.51
2018-04-25T13:33:39.479Z,47.09
2018-04-25T13:34:39.732Z,47.17
2018-04-25T13:35:39.491Z,47.45
2018-04-25T13:36:39.735Z,48.13
2018-04-25T13:37:39.494Z,48.11
2018-04-25T13:38:39.748Z,48.79
2018-04-25T13:39:39.747Z,48.3
2018-04-25T13:40:39.511Z,48.61
2018-04-25T13:41:39.509Z,47.85